Time;durP1;ratioP1;P1;durP2;ratioP2;P2;SDS_P1;SDS_P2;PMS_P1;PMS_P2;Temp;Humidity;BMP_temperature;BMP_pressure;BME280_temperature;BME280_humidity;BME280_pressure;Samples;Min_cycle;Max_cycle;Signal;HPM_P1;HPM_P2
2021/03/30 00:01:28;;;;;;;13.02;5.72;;;;;;;;;;5024441;28;20087;-84
2021/03/30 00:03:54;;;;;;;9.15;4.40;;;;;;;;;;5024310;28;20041;-83
2021/03/30 00:06:22;;;;;;;11.35;4.32;;;;;;;;;;5028106;28;20059;-82
2021/03/30 00:08:48;;;;;;;16.10;4.75;;;9.40;88.70;;;;;;5021230;28;20630;-80
2021/03/30 00:11:14;;;;;;;9.32;4.95;;;;;;;;;;5022315;28;20498;-81
2021/03/30 00:13:39;;;;;;;8.70;4.60;;;9.30;89.50;;;;;;5025688;28;20033;-83
2021/03/30 00:16:05;;;;;;;9.57;4.85;;;9.30;89.50;;;;;;5039661;28;20411;-82
2021/03/30 00:18:31;;;;;;;11.95;4.60;;;;;;;;;;5017637;28;21260;-80
2021/03/30 00:20:57;;;;;;;7.43;4.25;;;9.30;89.70;;;;;;5031383;28;20034;-83
2021/03/30 00:23:23;;;;;;;9.65;3.90;;;11.80;90.80;;;;;;5031581;28;20448;-83
2021/03/30 00:25:48;;;;;;;9.55;4.10;;;12.20;90.80;;;;;;5039239;28;20503;-84
2021/03/30 00:28:14;;;;;;;9.68;4.72;;;12.10;90.50;;;;;;5027786;28;20025;-83
2021/03/30 00:30:40;;;;;;;13.88;4.57;;;9.20;89.90;;;;;;5023784;28;20115;-83
2021/03/30 00:33:05;;;;;;;9.05;4.75;;;9.50;90.40;;;;;;5028169;28;20037;-81
2021/03/30 00:35:31;;;;;;;9.32;5.38;;;9.10;90.30;;;;;;5025294;28;20025;-81
2021/03/30 00:37:57;;;;;;;9.02;4.80;;;;;;;;;;5021747;28;20037;-82
2021/03/30 00:40:23;;;;;;;10.93;4.63;;;9.00;90.60;;;;;;5027146;28;20112;-84
2021/03/30 00:42:52;;;;;;;11.93;5.18;;;9.00;91.10;;;;;;5022538;28;20578;-79
2021/03/30 00:45:18;;;;;;;8.38;4.55;;;;;;;;;;5028904;28;20113;-82
2021/03/30 00:47:46;;;;;;;9.43;4.75;;;8.90;91.10;;;;;;5025564;28;20026;-80
2021/03/30 00:50:18;;;;;;;8.38;4.50;;;8.80;91.10;;;;;;5025759;28;20766;-82
2021/03/30 00:52:44;;;;;;;9.30;4.97;;;;;;;;;;5026036;28;20053;-81
2021/03/30 00:55:11;;;;;;;10.18;4.97;;;8.70;91.30;;;;;;5028692;28;20026;-84
2021/03/30 00:57:37;;;;;;;9.50;4.88;;;8.70;91.40;;;;;;5022436;28;20033;-82
2021/03/30 01:00:06;;;;;;;11.70;5.25;;;8.60;91.70;;;;;;5024635;28;20038;-79
2021/03/30 01:02:32;;;;;;;9.25;4.68;;;8.60;91.90;;;;;;5024926;28;20032;-84
2021/03/30 01:05:00;;;;;;;11.77;5.18;;;8.50;91.80;;;;;;5024943;28;20034;-83
2021/03/30 01:07:26;;;;;;;10.98;5.25;;;;;;;;;;5023634;28;20128;-79
2021/03/30 01:10:17;;;;;;;9.88;4.60;;;8.60;91.90;;;;;;5024692;28;20034;-81
2021/03/30 01:13:09;;;;;;;;;;;8.00;92.10;;;;;;5038033;28;20551;-79
2021/03/30 01:15:40;;;;;;;9.82;4.65;;;8.50;91.60;;;;;;5022936;28;19940;-80
2021/03/30 01:18:17;;;;;;;9.38;4.53;;;8.50;91.80;;;;;;5024262;28;20717;-81
2021/03/30 01:20:57;;;;;;;9.65;4.82;;;8.60;91.50;;;;;;5023884;28;20029;-81
2021/03/30 01:23:48;;;;;;;8.93;4.78;;;8.50;91.60;;;;;;5025021;28;20485;-80
2021/03/30 01:26:25;;;;;;;10.57;4.95;;;8.50;91.80;;;;;;5022963;28;20032;-84
2021/03/30 01:29:00;;;;;;;12.38;4.78;;;8.30;92.20;;;;;;5022867;28;20029;-84
2021/03/30 01:31:32;;;;;;;10.35;4.70;;;8.30;92.40;;;;;;5028746;28;21508;-79
2021/03/30 01:34:00;;;;;;;13.60;4.95;;;8.20;92.30;;;;;;5020330;28;20073;-82
2021/03/30 01:36:32;;;;;;;9.25;4.60;;;8.20;92.50;;;;;;5024349;28;20045;-81
2021/03/30 01:38:58;;;;;;;7.55;4.32;;;8.10;92.70;;;;;;5024559;28;20025;-81
2021/03/30 01:41:24;;;;;;;13.50;4.78;;;;;;;;;;5028087;28;20346;-82
2021/03/30 01:43:50;;;;;;;10.40;5.38;;;;;;;;;;5025579;28;20053;-81
2021/03/30 01:46:17;;;;;;;8.90;4.85;;;8.10;92.70;;;;;;5026638;28;20160;-80
2021/03/30 01:48:45;;;;;;;9.52;5.05;;;12.00;94.30;;;;;;5040933;28;20113;-79
2021/03/30 01:51:13;;;;;;;11.48;5.68;;;8.10;92.90;;;;;;5024333;28;20030;-83
2021/03/30 01:53:44;;;;;;;12.65;5.20;;;8.00;93.00;;;;;;5026121;28;20282;-80
2021/03/30 01:56:11;;;;;;;12.15;5.88;;;;;;;;;;5028011;28;20033;-81
2021/03/30 01:58:37;;;;;;;11.13;5.65;;;;;;;;;;5025689;28;20033;-79
2021/03/30 02:01:04;;;;;;;10.35;6.05;;;8.00;93.60;;;;;;5025564;28;20475;-80
2021/03/30 02:03:30;;;;;;;10.55;6.05;;;8.00;93.70;;;;;;5021760;28;20464;-81
2021/03/30 02:05:57;;;;;;;15.30;6.72;;;7.90;93.80;;;;;;5041984;28;20141;-81
2021/03/30 02:08:33;;;;;;;10.68;5.82;;;7.90;94.00;;;;;;5024251;28;20508;-80
2021/03/30 02:10:59;;;;;;;12.15;5.95;;;7.30;94.00;;;;;;5026123;28;20033;-80
2021/03/30 02:13:54;;;;;;;11.38;5.43;;;7.70;94.10;;;;;;5024916;28;20089;-78
2021/03/30 02:16:19;;;;;;;11.80;5.70;;;10.50;94.80;;;;;;5021451;28;20059;-79
2021/03/30 02:18:52;;;;;;;11.77;5.13;;;7.80;93.90;;;;;;5021145;28;20076;-78
2021/03/30 02:21:32;;;;;;;9.10;5.18;;;7.80;94.10;;;;;;5023431;28;20144;-82
2021/03/30 02:24:10;;;;;;;8.00;4.80;;;7.70;93.90;;;;;;5026887;28;20057;-83
2021/03/30 02:26:39;;;;;;;9.85;5.05;;;7.70;94.10;;;;;;5023297;28;20417;-84
2021/03/30 02:29:12;;;;;;;8.88;4.32;;;7.60;94.10;;;;;;5026677;28;20035;-80
2021/03/30 02:31:39;;;;;;;7.28;4.60;;;7.60;94.30;;;;;;5024480;28;20040;-81
2021/03/30 02:34:06;;;;;;;10.23;4.82;;;7.60;94.50;;;;;;5025243;28;20492;-81
2021/03/30 02:36:33;;;;;;;11.52;5.07;;;7.40;94.60;;;;;;5023164;28;20063;-81
2021/03/30 02:39:04;;;;;;;11.82;4.78;;;8.70;95.10;;;;;;5023402;28;20025;-80
2021/03/30 02:41:30;;;;;;;;;;;7.40;94.60;;;;;;5023123;28;20044;-80
2021/03/30 02:43:59;;;;;;;8.38;4.47;;;11.60;96.10;;;;;;5027320;28;19921;-80
2021/03/30 02:46:26;;;;;;;8.70;5.43;;;7.40;94.90;;;;;;5005281;28;20511;-80
2021/03/30 02:48:53;;;;;;;8.02;4.80;;;10.00;95.70;;;;;;5018459;28;20439;-80
2021/03/30 02:51:23;;;;;;;12.23;4.78;;;7.30;95.10;;;;;;5025064;28;20073;-82
2021/03/30 02:53:51;;;;;;;10.50;5.10;;;7.20;95.30;;;;;;5026719;28;20038;-80
2021/03/30 02:56:17;;;;;;;11.80;5.68;;;;;;;;;;5027300;28;20043;-81
2021/03/30 02:58:43;;;;;;;9.02;5.10;;;7.20;95.50;;;;;;5025013;28;20396;-80
2021/03/30 03:01:10;;;;;;;15.80;5.40;;;9.00;95.90;;;;;;5029471;28;20058;-81
2021/03/30 03:03:38;;;;;;;9.73;4.82;;;7.20;95.70;;;;;;5021654;28;20048;-78
2021/03/30 03:06:05;;;;;;;10.02;5.00;;;;;;;;;;5025756;28;20033;-80
2021/03/30 03:08:31;;;;;;;8.40;4.72;;;7.20;95.30;;;;;;5022809;28;20033;-83
2021/03/30 03:10:57;;;;;;;7.85;4.55;;;;;;;;;;5023824;28;20025;-83
2021/03/30 03:13:25;;;;;;;10.15;4.63;;;7.20;95.20;;;;;;5022674;28;20101;-82
2021/03/30 03:15:51;;;;;;;11.05;4.80;;;9.70;96.30;;;;;;5026141;28;20033;-83
2021/03/30 03:18:17;;;;;;;13.80;4.72;;;6.80;95.60;;;;;;5029150;28;20471;-79
2021/03/30 03:20:47;;;;;;;11.07;4.75;;;7.10;95.40;;;;;;5024655;28;20175;-80
2021/03/30 03:23:14;;;;;;;9.53;4.77;;;7.00;95.70;;;;;;5023696;28;20223;-82
2021/03/30 03:25:41;;;;;;;10.07;4.95;;;7.00;96.00;;;;;;5041552;28;20033;-82
2021/03/30 03:28:07;;;;;;;11.38;5.18;;;;;;;;;;5025329;28;20037;-82
2021/03/30 03:30:32;;;;;;;9.95;5.03;;;7.00;96.10;;;;;;5025993;28;20026;-81
2021/03/30 03:33:27;;;;;;;14.15;7.10;;;6.90;96.40;;;;;;5024571;28;20068;-81
2021/03/30 03:36:09;;;;;;;14.32;6.63;;;9.30;97.20;;;;;;5035159;28;20037;-83
2021/03/30 03:38:40;;;;;;;11.90;6.60;;;6.90;96.60;;;;;;5025317;28;20029;-81
2021/03/30 03:41:06;;;;;;;;;;;6.60;96.70;;;;;;5025942;28;20059;-83
2021/03/30 03:43:33;;;;;;;11.40;7.03;;;6.50;96.90;;;;;;5024113;28;19929;-80
2021/03/30 03:45:58;;;;;;;14.60;7.75;;;9.00;97.80;;;;;;5023533;28;20032;-81
2021/03/30 03:48:24;;;;;;;13.60;7.68;;;6.60;97.20;;;;;;5026974;28;20057;-79
2021/03/30 03:50:50;;;;;;;15.45;7.90;;;;;;;;;;5026103;28;20159;-81
2021/03/30 03:53:19;;;;;;;12.15;7.32;;;6.90;97.10;;;;;;5023460;28;20033;-82
2021/03/30 03:55:49;;;;;;;13.75;7.35;;;6.90;97.30;;;;;;5023558;28;20284;-80
2021/03/30 03:58:22;;;;;;;12.80;6.80;;;6.80;97.00;;;;;;5025070;28;20104;-82
2021/03/30 04:00:48;;;;;;;12.50;5.90;;;6.90;97.00;;;;;;5026182;28;20044;-80
2021/03/30 04:03:15;;;;;;;12.43;6.03;;;;;;;;;;5035825;28;20085;-78
2021/03/30 04:05:51;;;;;;;13.98;5.88;;;6.80;96.90;;;;;;5022693;28;20034;-82
2021/03/30 04:08:17;;;;;;;14.63;6.10;;;;;;;;;;5031141;28;20400;-81
2021/03/30 04:10:47;;;;;;;10.23;5.38;;;6.80;96.70;;;;;;5022112;28;20037;-79
2021/03/30 04:13:15;;;;;;;13.38;5.03;;;6.80;96.90;;;;;;5022687;28;20040;-83
2021/03/30 04:15:41;;;;;;;9.82;5.00;;;10.20;97.80;;;;;;5024401;28;20397;-82
2021/03/30 04:18:07;;;;;;;9.50;4.72;;;;;;;;;;5024797;28;20088;-83
2021/03/30 04:20:36;;;;;;;12.10;5.97;;;6.70;96.70;;;;;;5026152;28;20539;-81
2021/03/30 04:23:02;;;;;;;10.93;5.72;;;6.70;97.30;;;;;;5022719;28;20033;-81
2021/03/30 04:25:28;;;;;;;10.15;6.18;;;10.50;98.20;;;;;;5039086;28;20034;-82
2021/03/30 04:27:54;;;;;;;11.48;6.15;;;6.30;97.40;;;;;;5023270;28;20122;-81
2021/03/30 04:30:21;;;;;;;12.63;6.97;;;6.60;97.50;;;;;;5019878;28;20033;-80
2021/03/30 04:32:47;;;;;;;14.80;7.63;;;6.60;97.70;;;;;;5023049;28;20072;-81
2021/03/30 04:35:13;;;;;;;13.68;7.65;;;10.30;98.80;;;;;;5022814;28;20070;-83
2021/03/30 04:37:40;;;;;;;14.02;7.68;;;6.10;97.50;;;;;;5021723;28;20626;-80
2021/03/30 04:40:10;;;;;;;13.77;7.63;;;9.80;98.90;;;;;;5022751;28;20026;-81
2021/03/30 04:42:36;;;;;;;17.50;8.10;;;6.60;97.80;;;;;;5019372;28;20029;-83
2021/03/30 04:45:04;;;;;;;16.45;9.40;;;6.50;97.30;;;;;;5020204;28;20040;-84
2021/03/30 04:47:30;;;;;;;17.55;9.23;;;;;;;;;;5020624;28;20032;-80
2021/03/30 04:49:55;;;;;;;16.83;7.68;;;6.50;97.40;;;;;;5039116;28;20021;-83
2021/03/30 04:52:21;;;;;;;13.63;6.95;;;;;;;;;;5039541;28;20025;-81
2021/03/30 04:54:47;;;;;;;11.18;6.30;;;;;;;;;;5029620;28;20105;-84
2021/03/30 04:57:13;;;;;;;15.07;7.05;;;6.40;97.80;;;;;;5024316;28;20048;-80
2021/03/30 04:59:39;;;;;;;13.48;6.90;;;;;;;;;;5024409;28;20038;-82
2021/03/30 05:02:05;;;;;;;11.45;6.35;;;6.30;97.80;;;;;;5023316;28;20388;-84
2021/03/30 05:04:30;;;;;;;10.85;5.55;;;6.30;98.10;;;;;;5039419;28;20029;-80
2021/03/30 05:06:56;;;;;;;12.32;6.43;;;6.20;97.80;;;;;;5031311;28;20350;-82
2021/03/30 05:09:22;;;;;;;13.02;5.68;;;6.20;98.00;;;;;;5028757;28;20025;-84
2021/03/30 05:11:47;;;;;;;12.27;5.65;;;8.60;98.60;;;;;;5032647;28;20260;-81
2021/03/30 05:14:13;;;;;;;10.55;6.43;;;9.20;98.90;;;;;;5022044;28;20101;-79
2021/03/30 05:16:38;;;;;;;11.27;6.82;;;8.00;98.60;;;;;;5020138;28;20046;-79
2021/03/30 05:19:04;;;;;;;13.73;6.68;;;;;;;;;;5028023;28;20063;-79
2021/03/30 05:21:30;;;;;;;12.85;6.68;;;;;;;;;;5025062;28;20037;-84
2021/03/30 05:23:56;;;;;;;11.23;6.35;;;6.30;98.10;;;;;;5025668;28;20120;-82
2021/03/30 05:26:22;;;;;;;11.52;6.50;;;;;;;;;;5026066;28;20562;-81
2021/03/30 05:28:48;;;;;;;15.07;7.72;;;;;;;;;;5026456;28;20028;-80
2021/03/30 05:31:14;;;;;;;19.35;9.32;;;;;;;;;;5028124;28;20400;-79
2021/03/30 05:33:40;;;;;;;18.27;9.73;;;;;;;;;;5022688;28;20488;-82
2021/03/30 05:36:06;;;;;;;15.05;8.85;;;6.20;98.10;;;;;;5034229;28;20032;-81
2021/03/30 05:38:32;;;;;;;16.77;8.60;;;;;;;;;;5026809;28;20534;-83
2021/03/30 05:41:01;;;;;;;14.30;7.75;;;6.20;98.30;;;;;;5035533;28;20481;-80
2021/03/30 05:43:26;;;;;;;58.95;10.02;;;6.10;98.40;;;;;;5027716;28;20033;-79
2021/03/30 05:45:53;;;;;;;16.42;7.30;;;;;;;;;;5023225;28;20083;-82
2021/03/30 05:48:18;;;;;;;13.38;6.65;;;6.20;98.40;;;;;;5026189;28;20030;-82
2021/03/30 05:50:44;;;;;;;13.77;7.68;;;;;;;;;;5023574;28;20032;-80
2021/03/30 05:53:13;;;;;;;12.45;6.38;;;6.10;98.60;;;;;;5023519;28;20079;-81
2021/03/30 05:55:43;;;;;;;16.38;6.88;;;6.10;98.40;;;;;;5020029;28;20041;-81
2021/03/30 05:58:09;;;;;;;14.00;6.65;;;;;;;;;;5008993;28;20038;-85
2021/03/30 06:00:43;;;;;;;12.45;6.25;;;6.20;98.20;;;;;;5029173;28;20225;-81
2021/03/30 06:03:12;;;;;;;9.38;6.22;;;6.20;98.30;;;;;;5020491;28;20750;-82
2021/03/30 06:05:38;;;;;;;12.30;5.97;;;6.10;98.40;;;;;;5012120;28;20029;-85
2021/03/30 06:08:05;;;;;;;13.65;5.78;;;6.30;97.80;;;;;;5024584;28;20026;-82
2021/03/30 06:10:32;;;;;;;13.30;6.53;;;6.40;97.90;;;;;;5025184;28;20101;-82
2021/03/30 06:13:00;;;;;;;15.35;6.30;;;6.40;97.70;;;;;;5037423;28;20093;-81
2021/03/30 06:15:35;;;;;;;11.38;6.10;;;8.30;98.30;;;;;;5023170;28;20515;-82
2021/03/30 06:18:16;;;;;;;13.95;6.10;;;6.40;98.00;;;;;;5032951;28;20306;-80
2021/03/30 06:20:42;;;;;;;;;;;10.30;99.00;;;;;;5000680;28;20625;-79
2021/03/30 06:23:08;;;;;;;12.48;7.28;;;;;;;;;;5020136;28;19913;-79
2021/03/30 06:25:34;;;;;;;13.38;7.03;;;;;;;;;;5022380;28;20025;-80
2021/03/30 06:28:31;;;;;;;14.27;7.00;;;6.70;97.30;;;;;;5022014;28;20030;-80
2021/03/30 06:31:10;;;;;;;11.77;7.07;;;6.70;97.50;;;;;;5040923;28;20064;-82
2021/03/30 06:33:45;;;;;;;17.63;6.60;;;6.70;97.60;;;;;;5022816;28;20048;-79
2021/03/30 06:36:21;;;;;;;13.05;6.57;;;6.70;97.50;;;;;;5019533;28;20164;-80
2021/03/30 06:38:56;;;;;;;15.38;7.78;;;6.90;97.50;;;;;;5020893;28;20398;-81
2021/03/30 06:44:37;;;;;;;22.60;7.68;;;7.20;97.20;;;;;;5024871;28;20089;-78
2021/03/30 06:47:18;;;;;;;18.08;7.22;;;7.30;96.10;;;;;;5024423;28;20033;-82
2021/03/30 06:50:01;;;;;;;15.05;6.50;;;7.40;96.30;;;;;;5018516;28;20026;-80
2021/03/30 06:52:27;;;;;;;14.48;7.05;;;;;;;;;;5021755;28;20026;-81
2021/03/30 06:54:54;;;;;;;18.67;7.25;;;7.70;95.50;;;;;;5024984;28;20040;-82
2021/03/30 06:57:36;;;;;;;10.55;6.35;;;;;;;;;;5025555;28;20125;-82
2021/03/30 07:00:05;;;;;;;14.15;7.15;;;8.00;94.40;;;;;;5025998;28;20076;-85
2021/03/30 07:02:32;;;;;;;17.67;7.05;;;8.20;94.50;;;;;;5025003;28;20030;-79
2021/03/30 07:04:58;;;;;;;15.82;7.82;;;8.00;93.90;;;;;;5024933;28;20033;-80
2021/03/30 07:07:24;;;;;;;14.93;8.10;;;8.60;93.00;;;;;;5023060;28;20752;-79
2021/03/30 07:09:53;;;;;;;11.20;6.97;;;8.60;93.20;;;;;;5022902;28;20053;-82
2021/03/30 07:12:23;;;;;;;14.85;7.10;;;8.90;92.60;;;;;;5023687;28;20021;-79
2021/03/30 07:14:50;;;;;;;13.25;6.93;;;9.30;92.80;;;;;;5024318;28;20047;-83
2021/03/30 07:17:25;;;;;;;19.67;7.10;;;9.30;91.80;;;;;;5027336;28;20083;-81
2021/03/30 07:19:55;;;;;;;15.35;7.10;;;11.30;92.40;;;;;;5023574;28;20061;-83
2021/03/30 07:22:24;;;;;;;15.75;6.82;;;11.00;91.70;;;;;;5029748;28;20278;-82
2021/03/30 07:24:56;;;;;;;13.43;7.22;;;9.60;90.60;;;;;;5030491;28;20030;-81
2021/03/30 07:27:27;;;;;;;15.50;7.35;;;9.60;90.40;;;;;;5037826;28;20436;-83
2021/03/30 07:29:55;;;;;;;14.68;7.10;;;9.70;90.20;;;;;;5022176;28;20030;-80
2021/03/30 07:32:41;;;;;;;14.95;7.05;;;12.40;91.00;;;;;;5020790;28;20053;-81
2021/03/30 07:35:16;;;;;;;13.88;7.72;;;10.00;89.30;;;;;;5035928;28;20136;-80
2021/03/30 07:37:50;;;;;;;15.88;7.70;;;10.00;88.60;;;;;;5021295;28;20046;-82
2021/03/30 07:40:17;;;;;;;18.98;7.80;;;10.30;88.00;;;;;;5022271;28;20044;-81
2021/03/30 07:42:45;;;;;;;13.35;7.18;;;10.10;88.20;;;;;;5022536;28;20036;-81
2021/03/30 07:45:12;;;;;;;11.35;7.32;;;10.50;87.50;;;;;;5019600;28;20029;-83
2021/03/30 07:47:39;;;;;;;14.98;7.35;;;10.60;86.10;;;;;;5023474;28;20033;-82
2021/03/30 07:50:10;;;;;;;17.15;7.45;;;10.60;85.60;;;;;;5018954;28;20030;-81
2021/03/30 07:52:43;;;;;;;14.57;7.55;;;11.10;83.40;;;;;;5020105;28;20033;-84
2021/03/30 07:55:17;;;;;;;15.80;7.78;;;13.20;84.80;;;;;;5016950;28;20163;-83
2021/03/30 07:58:05;;;;;;;13.90;6.75;;;11.50;81.20;;;;;;5030196;28;20076;-82
2021/03/30 08:00:31;;;;;;;21.33;7.85;;;11.50;81.40;;;;;;5019326;28;20041;-80
2021/03/30 08:03:02;;;;;;;12.73;7.30;;;12.10;78.30;;;;;;5024587;28;20025;-80
2021/03/30 08:05:28;;;;;;;21.38;8.98;;;12.00;78.60;;;;;;5024571;28;20389;-80
2021/03/30 08:07:56;;;;;;;12.57;6.68;;;14.50;79.30;;;;;;5026510;28;20029;-83
2021/03/30 08:10:26;;;;;;;12.25;7.07;;;12.70;76.40;;;;;;5026963;28;20029;-80
2021/03/30 08:13:29;;;;;;;13.60;7.82;;;12.60;75.30;;;;;;5041509;28;20022;-79
2021/03/30 08:16:09;;;;;;;15.45;7.45;;;13.10;73.60;;;;;;5031091;28;20030;-80
2021/03/30 08:18:41;;;;;;;11.95;7.07;;;12.60;73.70;;;;;;5018903;28;20414;-77
2021/03/30 08:21:09;;;;;;;16.02;7.10;;;13.40;74.90;;;;;;5022287;28;20090;-80
2021/03/30 08:24:10;;;;;;;12.60;7.10;;;13.50;73.00;;;;;;5024092;28;20036;-82
2021/03/30 08:26:39;;;;;;;13.07;7.20;;;13.80;71.70;;;;;;5001766;28;20057;-82
2021/03/30 08:29:17;;;;;;;14.30;7.65;;;13.90;70.50;;;;;;5002211;28;20132;-80
2021/03/30 08:31:53;;;;;;;15.80;6.80;;;14.10;69.50;;;;;;5037729;28;20037;-78
2021/03/30 08:34:26;;;;;;;13.00;7.03;;;14.20;68.10;;;;;;5019961;28;20032;-81
2021/03/30 08:36:54;;;;;;;11.10;6.75;;;14.40;67.30;;;;;;5036648;28;20034;-83
2021/03/30 08:39:22;;;;;;;15.27;7.63;;;14.40;66.50;;;;;;5023274;28;20033;-83
2021/03/30 08:41:57;;;;;;;14.48;7.40;;;14.60;66.40;;;;;;5038313;28;20109;-81
2021/03/30 08:44:22;;;;;;;12.43;7.65;;;14.80;65.70;;;;;;5045636;28;20033;-81
2021/03/30 08:46:56;;;;;;;16.20;6.60;;;15.00;64.40;;;;;;5024844;28;20124;-81
2021/03/30 08:49:31;;;;;;;15.18;7.13;;;15.60;64.20;;;;;;5023873;28;20022;-80
2021/03/30 08:51:58;;;;;;;11.15;6.35;;;15.40;63.20;;;;;;5025556;28;20052;-81
2021/03/30 08:54:35;;;;;;;15.40;6.82;;;16.40;63.50;;;;;;5026176;28;20061;-84
2021/03/30 08:57:06;;;;;;;14.95;6.03;;;15.80;59.60;;;;;;5030448;28;20111;-81
2021/03/30 08:59:32;;;;;;;11.02;6.85;;;15.00;60.10;;;;;;5037402;28;20067;-81
2021/03/30 09:02:04;;;;;;;12.13;5.90;;;16.00;59.60;;;;;;5031527;28;20029;-77
2021/03/30 09:04:32;;;;;;;16.92;6.03;;;16.00;59.30;;;;;;5029567;28;20041;-80
2021/03/30 09:06:58;;;;;;;10.43;6.03;;;16.50;58.70;;;;;;5026631;28;20033;-81
2021/03/30 09:09:28;;;;;;;15.30;6.30;;;16.60;57.80;;;;;;5028746;28;20029;-79
2021/03/30 09:11:54;;;;;;;15.38;5.30;;;;;;;;;;5029681;28;20033;-79
2021/03/30 09:14:22;;;;;;;10.38;5.28;;;16.60;55.40;;;;;;5041100;28;20956;-81
2021/03/30 09:16:51;;;;;;;10.57;5.43;;;19.60;57.40;;;;;;5039156;28;20056;-81
2021/03/30 09:19:32;;;;;;;10.27;5.28;;;16.10;54.40;;;;;;5043930;28;20040;-80
2021/03/30 09:22:03;;;;;;;11.68;6.10;;;17.00;52.60;;;;;;5031972;28;20034;-82
2021/03/30 09:24:40;;;;;;;13.82;5.22;;;17.00;52.80;;;;;;5029683;28;20042;-81
2021/03/30 09:27:07;;;;;;;8.85;5.00;;;17.30;52.20;;;;;;5036064;28;20029;-83
2021/03/30 09:29:36;;;;;;;14.60;5.05;;;19.70;54.10;;;;;;5030356;28;20040;-83
2021/03/30 09:32:07;;;;;;;10.50;3.97;;;17.20;52.50;;;;;;5029099;28;20056;-83
2021/03/30 09:34:33;;;;;;;12.30;4.60;;;17.60;51.90;;;;;;5034660;28;20022;-81
2021/03/30 09:37:00;;;;;;;9.45;4.68;;;17.90;50.00;;;;;;5044595;28;20102;-81
2021/03/30 09:39:27;;;;;;;9.57;4.72;;;19.20;51.10;;;;;;5026695;28;20034;-80
2021/03/30 09:41:55;;;;;;;9.40;4.10;;;18.30;48.80;;;;;;5011138;28;20381;-82
2021/03/30 09:44:22;;;;;;;9.35;3.30;;;20.70;50.50;;;;;;5025460;28;20116;-79
2021/03/30 09:46:51;;;;;;;4.53;2.65;;;19.10;48.30;;;;;;5043074;28;20025;-80
2021/03/30 09:49:20;;;;;;;5.25;2.67;;;19.20;43.60;;;;;;5042995;28;20018;-83
2021/03/30 09:51:49;;;;;;;4.57;2.30;;;18.90;43.90;;;;;;5050584;28;20033;-81
2021/03/30 09:54:44;;;;;;;4.07;2.35;;;19.20;42.30;;;;;;5026612;28;20033;-77
2021/03/30 09:57:12;;;;;;;4.25;2.28;;;19.50;40.70;;;;;;5028171;28;20025;-79
2021/03/30 09:59:39;;;;;;;4.90;1.83;;;;;;;;;;5040226;28;20033;-81
2021/03/30 10:02:05;;;;;;;5.68;1.80;;;;;;;;;;5029529;28;20033;-79
2021/03/30 10:04:35;;;;;;;4.35;1.90;;;19.90;39.20;;;;;;5027411;28;21284;-81
2021/03/30 10:07:15;;;;;;;4.80;1.70;;;20.00;39.30;;;;;;5027756;28;20116;-82
2021/03/30 10:10:11;;;;;;;5.30;2.25;;;20.10;40.00;;;;;;5024899;28;20667;-80
2021/03/30 10:12:55;;;;;;;4.68;1.98;;;20.20;38.60;;;;;;5028279;28;20025;-82
2021/03/30 10:15:40;;;;;;;4.72;1.90;;;20.30;37.90;;;;;;5026198;28;20030;-80
2021/03/30 10:18:07;;;;;;;4.30;2.00;;;20.40;37.70;;;;;;5041215;28;20037;-81
2021/03/30 10:20:38;;;;;;;5.03;1.92;;;20.60;36.80;;;;;;5026562;28;20052;-82
2021/03/30 10:23:26;;;;;;;4.60;1.95;;;20.60;35.70;;;;;;5026693;28;20079;-81
2021/03/30 10:25:52;;;;;;;4.78;1.88;;;;;;;;;;5026819;28;20041;-83
2021/03/30 10:28:26;;;;;;;6.10;1.98;;;20.70;34.90;;;;;;5010649;28;20050;-81
2021/03/30 10:30:58;;;;;;;3.97;1.70;;;20.70;35.00;;;;;;5026536;28;20627;-80
2021/03/30 10:33:49;;;;;;;3.70;1.80;;;20.90;34.50;;;;;;5024959;28;20506;-79
2021/03/30 10:36:15;;;;;;;3.40;1.92;;;22.70;35.50;;;;;;5022520;28;20053;-80
2021/03/30 10:39:07;;;;;;;6.70;2.03;;;21.20;34.80;;;;;;5027372;28;20101;-81
2021/03/30 10:41:35;;;;;;;3.88;1.70;;;21.20;35.10;;;;;;5024230;28;20098;-81
2021/03/30 10:44:01;;;;;;;3.45;1.60;;;;;;;;;;5022936;28;20888;-82
2021/03/30 10:46:27;;;;;;;4.93;1.90;;;21.40;32.90;;;;;;5024985;28;20464;-80
2021/03/30 10:49:06;;;;;;;4.57;1.85;;;21.40;33.00;;;;;;5021726;28;20033;-82
2021/03/30 10:51:34;;;;;;;5.13;1.88;;;21.70;31.70;;;;;;5028778;28;20033;-80
2021/03/30 10:54:02;;;;;;;7.38;2.33;;;21.60;32.10;;;;;;5032020;28;20488;-80
2021/03/30 10:56:29;;;;;;;2.72;1.40;;;23.10;31.60;;;;;;5024635;28;20513;-80
2021/03/30 10:58:55;;;;;;;3.63;1.60;;;22.50;29.70;;;;;;5025042;28;20364;-82
2021/03/30 11:01:21;;;;;;;4.00;1.75;;;23.80;31.60;;;;;;5028184;28;21521;-82
2021/03/30 11:03:46;;;;;;;3.63;1.65;;;22.00;30.90;;;;;;5026607;28;20052;-81
2021/03/30 11:06:13;;;;;;;4.68;1.80;;;;;;;;;;5027523;28;20030;-78
2021/03/30 11:08:38;;;;;;;3.28;1.98;;;22.10;30.20;;;;;;5031237;28;20125;-83
2021/03/30 11:11:04;;;;;;;3.65;1.52;;;22.20;31.90;;;;;;5027999;28;20104;-81
2021/03/30 11:13:30;;;;;;;2.85;1.50;;;;;;;;;;5026917;28;20103;-79
2021/03/30 11:15:56;;;;;;;3.05;1.70;;;22.20;31.00;;;;;;5017638;28;20089;-79
2021/03/30 11:18:22;;;;;;;4.60;1.75;;;;;;;;;;5018858;28;20029;-77
2021/03/30 11:20:47;;;;;;;3.63;1.77;;;22.50;30.00;;;;;;5019534;28;20064;-81
2021/03/30 11:23:13;;;;;;;6.07;1.67;;;24.80;31.50;;;;;;5020662;28;20022;-81
2021/03/30 11:25:40;;;;;;;3.92;1.75;;;;;;;;;;5026748;28;20079;-80
2021/03/30 11:28:08;;;;;;;3.00;1.55;;;;;;;;;;5025346;28;20032;-81
2021/03/30 11:30:46;;;;;;;3.42;1.75;;;;;;;;;;5025390;28;20165;-78
2021/03/30 11:33:27;;;;;;;5.00;2.17;;;22.70;29.90;;;;;;5028711;28;20017;-82
2021/03/30 11:36:01;;;;;;;2.85;1.63;;;22.70;32.50;;;;;;5026032;28;20033;-82
2021/03/30 11:38:27;;;;;;;3.15;1.55;;;;;;;;;;5040236;28;20049;-77
2021/03/30 11:40:52;;;;;;;2.80;1.50;;;22.70;29.70;;;;;;5018356;28;20029;-78
2021/03/30 11:43:19;;;;;;;4.05;2.03;;;22.70;30.20;;;;;;5019913;28;20084;-77
2021/03/30 11:45:45;;;;;;;4.95;1.90;;;;;;;;;;5019560;28;20388;-77
2021/03/30 11:48:11;;;;;;;4.28;1.77;;;;;;;;;;5020327;28;20025;-77
2021/03/30 11:50:37;;;;;;;5.13;2.28;;;23.00;31.40;;;;;;5018015;28;20037;-77
2021/03/30 11:53:03;;;;;;;3.90;1.98;;;23.00;30.90;;;;;;5025844;28;20021;-77
2021/03/30 11:55:29;;;;;;;6.82;1.98;;;23.10;32.60;;;;;;5012916;28;20804;-77
2021/03/30 11:57:55;;;;;;;4.20;2.10;;;23.20;31.40;;;;;;5035568;28;20036;-79
2021/03/30 12:00:22;;;;;;;4.43;1.80;;;23.20;31.80;;;;;;5021468;28;20025;-78
2021/03/30 12:02:49;;;;;;;3.35;2.00;;;23.20;30.90;;;;;;5023809;28;20048;-78
2021/03/30 12:05:15;;;;;;;5.40;1.95;;;;;;;;;;5025449;28;20030;-78
2021/03/30 12:07:41;;;;;;;4.22;1.70;;;23.20;31.90;;;;;;5019411;28;20556;-79
2021/03/30 12:10:07;;;;;;;7.95;2.17;;;23.20;30.90;;;;;;5015902;28;20100;-77
2021/03/30 12:12:34;;;;;;;4.18;1.80;;;;;;;;;;5041880;28;20018;-78
2021/03/30 12:14:59;;;;;;;3.85;1.80;;;23.20;30.00;;;;;;5017950;28;20724;-78
2021/03/30 12:17:25;;;;;;;3.65;1.73;;;23.30;32.20;;;;;;5041543;28;20044;-78
2021/03/30 12:19:51;;;;;;;5.20;1.70;;;23.40;31.90;;;;;;5016491;28;20413;-79
2021/03/30 12:22:17;;;;;;;3.50;1.80;;;23.50;30.90;;;;;;5017225;28;20052;-78
2021/03/30 12:24:43;;;;;;;5.22;2.10;;;23.40;31.80;;;;;;5018601;28;20092;-77
2021/03/30 12:27:10;;;;;;;4.35;1.60;;;23.50;30.00;;;;;;5023900;28;20254;-80
2021/03/30 12:29:40;;;;;;;3.85;1.63;;;23.60;31.70;;;;;;5032345;28;20026;-78
2021/03/30 12:32:07;;;;;;;4.47;1.63;;;24.00;30.70;;;;;;5031593;28;20052;-77
2021/03/30 12:34:34;;;;;;;6.78;2.65;;;;;;;;;;5025385;28;20030;-79
2021/03/30 12:37:01;;;;;;;3.25;1.52;;;23.90;29.70;;;;;;5026288;28;20123;-79
2021/03/30 12:39:27;;;;;;;5.65;1.60;;;23.90;30.00;;;;;;5035836;28;20037;-82
2021/03/30 12:41:53;;;;;;;4.05;2.45;;;;;;;;;;5024067;28;20408;-80
2021/03/30 12:44:19;;;;;;;3.78;1.35;;;;;;;;;;5022544;28;20029;-80
2021/03/30 12:46:45;;;;;;;2.95;1.60;;;24.00;29.00;;;;;;5028083;28;20025;-79
2021/03/30 12:49:11;;;;;;;3.30;1.50;;;;;;;;;;5028863;28;20033;-80
2021/03/30 12:51:37;;;;;;;5.47;2.17;;;;;;;;;;5028727;28;20392;-79
2021/03/30 12:54:03;;;;;;;4.93;1.88;;;;;;;;;;5030948;28;20113;-80
2021/03/30 12:56:29;;;;;;;7.15;1.70;;;24.30;29.10;;;;;;5045903;28;20041;-80
2021/03/30 12:58:55;;;;;;;4.47;1.55;;;;;;;;;;5033645;28;20033;-80
2021/03/30 13:01:20;;;;;;;4.80;2.05;;;24.40;29.10;;;;;;5033789;28;20064;-77
2021/03/30 13:03:46;;;;;;;3.00;1.77;;;;;;;;;;5031608;28;20053;-79
2021/03/30 13:06:12;;;;;;;3.38;1.63;;;24.40;29.30;;;;;;5019293;28;20017;-79
2021/03/30 13:08:37;;;;;;;3.20;1.70;;;24.40;30.00;;;;;;5025559;28;20029;-79
2021/03/30 13:11:04;;;;;;;3.08;1.73;;;26.40;30.90;;;;;;5029384;28;20036;-78
2021/03/30 13:13:30;;;;;;;5.85;2.00;;;;;;;;;;5025241;28;20033;-79
2021/03/30 13:15:55;;;;;;;3.85;1.48;;;24.50;30.20;;;;;;5029592;28;20044;-79
2021/03/30 13:18:21;;;;;;;3.22;1.80;;;25.30;30.00;;;;;;5028569;28;20093;-80
2021/03/30 13:20:47;;;;;;;5.13;1.75;;;25.40;31.20;;;;;;5032167;28;20038;-79
2021/03/30 13:23:13;;;;;;;4.97;1.60;;;;;;;;;;5026638;28;20025;-78